createdAt,value
2019-04-14T00:02:10.368Z,15.30
2019-04-14T00:04:37.889Z,15.20
2019-04-14T00:07:03.756Z,15.20
2019-04-14T00:09:31.589Z,15.20
2019-04-14T00:11:56.983Z,15.20
2019-04-14T00:14:23.018Z,15.20
2019-04-14T00:16:49.194Z,15.20
2019-04-14T00:19:15.341Z,15.20
2019-04-14T00:21:41.678Z,15.20
2019-04-14T00:24:07.829Z,15.20
2019-04-14T00:26:33.997Z,15.20
2019-04-14T00:29:00.236Z,15.20
2019-04-14T00:31:26.369Z,15.20
2019-04-14T00:33:52.517Z,15.10
2019-04-14T00:36:19.702Z,15.10
2019-04-14T00:38:45.592Z,15.10
2019-04-14T00:41:12.013Z,15.00
2019-04-14T00:43:38.170Z,15.10
2019-04-14T00:46:04.436Z,15.10
2019-04-14T00:48:30.543Z,15.10
2019-04-14T00:50:56.700Z,15.10
2019-04-14T00:53:22.933Z,15.10
2019-04-14T00:55:49.073Z,15.10
2019-04-14T00:58:15.221Z,15.10
2019-04-14T01:00:41.369Z,15.20
2019-04-14T01:03:07.536Z,15.20
2019-04-14T01:05:34.838Z,15.10
2019-04-14T01:08:00.933Z,15.20
2019-04-14T01:10:26.095Z,15.20
2019-04-14T01:12:52.245Z,15.10
2019-04-14T01:15:18.398Z,15.10
2019-04-14T01:17:44.569Z,15.10
2019-04-14T01:20:10.714Z,15.10
2019-04-14T01:22:37.999Z,15.00
2019-04-14T01:25:04.248Z,15.00
2019-04-14T01:27:29.908Z,15.00
2019-04-14T01:29:55.914Z,15.00
2019-04-14T01:32:21.909Z,15.00
2019-04-14T01:34:50.743Z,15.10
2019-04-14T01:37:14.084Z,15.10
2019-04-14T01:39:41.359Z,15.10
2019-04-14T01:42:07.137Z,15.00
2019-04-14T01:44:33.021Z,15.00
2019-04-14T01:46:58.878Z,15.00
2019-04-14T01:49:25.016Z,15.00
2019-04-14T01:51:51.168Z,15.00
2019-04-14T01:54:17.308Z,15.00
2019-04-14T01:56:43.468Z,15.00
2019-04-14T01:59:10.764Z,15.00
2019-04-14T02:01:36.740Z,15.00
2019-04-14T02:04:02.937Z,14.90
2019-04-14T02:06:28.792Z,14.90
2019-04-14T02:08:54.686Z,14.80
2019-04-14T02:11:20.671Z,14.90
2019-04-14T02:13:46.815Z,14.90
2019-04-14T02:16:23.753Z,14.90
2019-04-14T02:18:40.453Z,14.90
2019-04-14T02:21:06.410Z,14.90
2019-04-14T02:23:32.276Z,14.90
2019-04-14T02:25:58.056Z,14.90
2019-04-14T02:28:24.278Z,15.00
2019-04-14T02:31:00.414Z,15.00
2019-04-14T02:36:14.256Z,15.00
2019-04-14T02:38:45.246Z,15.00
2019-04-14T02:41:04.325Z,15.00
2019-04-14T02:43:29.547Z,15.00
2019-04-14T02:45:59.907Z,15.00
2019-04-14T02:50:48.173Z,14.90
2019-04-14T02:53:15.878Z,14.90
2019-04-14T02:55:44.857Z,14.80
2019-04-14T03:03:01.234Z,14.80
2019-04-14T03:05:26.832Z,14.80
2019-04-14T03:07:53.665Z,14.90
2019-04-14T03:10:18.196Z,14.80
2019-04-14T03:12:49.187Z,14.90
2019-04-14T03:15:08.097Z,14.90
2019-04-14T03:17:38.291Z,14.80
2019-04-14T03:22:37.449Z,14.90
2019-04-14T03:24:42.358Z,14.90
2019-04-14T03:27:25.014Z,14.80
2019-04-14T03:29:43.141Z,14.80
2019-04-14T03:32:23.122Z,14.80
2019-04-14T03:34:58.950Z,14.80
2019-04-14T03:37:31.941Z,14.80
2019-04-14T03:39:39.034Z,14.80
2019-04-14T03:42:00.934Z,14.90
2019-04-14T03:44:33.092Z,14.80
2019-04-14T03:46:51.253Z,14.80
2019-04-14T03:49:16.697Z,14.80
2019-04-14T03:51:50.285Z,14.80
2019-04-14T03:54:06.148Z,14.80
2019-04-14T03:56:13.782Z,14.70
2019-04-14T03:58:36.338Z,14.90
2019-04-14T04:01:02.517Z,14.90
2019-04-14T04:03:28.669Z,14.90
2019-04-14T04:05:56.319Z,14.80
2019-04-14T04:08:22.408Z,14.70
2019-04-14T04:10:48.668Z,14.70
2019-04-14T04:13:14.984Z,14.80
2019-04-14T04:15:41.097Z,14.70
2019-04-14T04:18:07.114Z,14.80
2019-04-14T04:20:33.278Z,14.80
2019-04-14T04:22:59.434Z,14.80
2019-04-14T04:25:26.639Z,14.80
2019-04-14T04:27:52.627Z,14.80
2019-04-14T04:30:18.684Z,14.80
2019-04-14T04:32:44.800Z,14.70
2019-04-14T04:35:11.138Z,14.70
2019-04-14T04:37:37.287Z,14.70
2019-04-14T04:40:03.441Z,14.70
2019-04-14T04:42:30.759Z,14.80
2019-04-14T04:44:55.789Z,14.70
2019-04-14T04:47:23.038Z,14.70
2019-04-14T04:49:49.053Z,14.60
2019-04-14T04:52:16.929Z,14.60
2019-04-14T04:54:42.833Z,14.70
2019-04-14T04:57:08.890Z,14.70
2019-04-14T04:59:34.432Z,14.60
2019-04-14T05:02:00.617Z,14.70
2019-04-14T05:04:26.798Z,14.70
2019-04-14T05:06:52.956Z,14.80
2019-04-14T05:09:19.105Z,14.80
2019-04-14T05:11:45.287Z,14.70
2019-04-14T05:14:11.429Z,14.70
2019-04-14T05:16:37.592Z,14.70
2019-04-14T05:19:14.875Z,14.70
2019-04-14T05:21:30.719Z,14.80
2019-04-14T05:23:58.057Z,14.80
2019-04-14T05:26:24.374Z,14.80
2019-04-14T05:28:50.522Z,14.80
2019-04-14T05:31:16.365Z,14.70
2019-04-14T05:33:42.572Z,14.70
2019-04-14T05:36:08.574Z,14.70
2019-04-14T05:38:35.410Z,14.70
2019-04-14T05:41:00.473Z,14.70
2019-04-14T05:43:35.943Z,14.60
2019-04-14T05:45:52.652Z,14.70
2019-04-14T05:48:18.801Z,14.60
2019-04-14T05:50:44.952Z,14.60
2019-04-14T05:53:11.114Z,14.60
2019-04-14T05:55:37.358Z,14.70
2019-04-14T05:58:03.678Z,14.60
2019-04-14T06:00:30.028Z,14.70
2019-04-14T06:02:57.229Z,14.60
2019-04-14T06:05:23.226Z,14.60
2019-04-14T06:07:48.449Z,14.60
2019-04-14T06:10:14.598Z,14.60
2019-04-14T06:12:41.530Z,14.60
2019-04-14T06:15:07.675Z,14.60
2019-04-14T06:17:33.849Z,14.50
2019-04-14T06:20:00.011Z,14.20
2019-04-14T06:22:26.177Z,14.00
2019-04-14T06:24:52.325Z,14.10
2019-04-14T06:27:18.485Z,14.30
2019-04-14T06:29:44.653Z,14.50
2019-04-14T06:32:10.806Z,14.70
2019-04-14T06:34:36.968Z,14.90
2019-04-14T06:37:03.139Z,15.10
2019-04-14T06:39:29.288Z,15.20
2019-04-14T06:41:55.457Z,15.30
2019-04-14T06:44:21.608Z,15.50
2019-04-14T06:46:47.760Z,15.60
2019-04-14T06:49:13.931Z,15.70
2019-04-14T06:51:40.087Z,15.80
2019-04-14T06:54:07.011Z,15.90
2019-04-14T06:56:33.167Z,15.90
2019-04-14T06:58:59.333Z,16.00
2019-04-14T07:01:25.493Z,16.10
2019-04-14T07:03:51.660Z,16.20
2019-04-14T07:06:17.813Z,16.20
2019-04-14T07:08:43.973Z,16.30
2019-04-14T07:11:10.124Z,16.30
2019-04-14T07:13:36.293Z,16.40
2019-04-14T07:16:02.453Z,16.40
2019-04-14T07:18:28.625Z,16.50
2019-04-14T07:20:54.778Z,16.50
2019-04-14T07:23:20.933Z,16.50
2019-04-14T07:25:47.097Z,16.60
2019-04-14T07:28:13.267Z,16.60
2019-04-14T07:30:39.421Z,16.60
2019-04-14T07:33:05.586Z,16.70
2019-04-14T07:35:31.752Z,16.70
2019-04-14T07:37:57.906Z,16.80
2019-04-14T07:40:24.077Z,16.80
2019-04-14T07:42:50.236Z,16.80
2019-04-14T07:45:16.394Z,16.90
2019-04-14T07:47:42.549Z,16.80
2019-04-14T07:50:14.477Z,17.00
2019-04-14T07:52:35.680Z,17.00
2019-04-14T07:55:01.838Z,17.00
2019-04-14T07:57:27.994Z,17.00
2019-04-14T07:59:54.146Z,17.00
2019-04-14T08:02:20.297Z,17.10
2019-04-14T08:04:46.469Z,17.10
2019-04-14T08:07:12.612Z,17.10
2019-04-14T08:09:38.786Z,17.10
2019-04-14T08:12:04.937Z,17.20
2019-04-14T08:14:31.113Z,17.20
2019-04-14T08:16:57.261Z,17.20
2019-04-14T08:19:23.431Z,17.20
2019-04-14T08:21:49.589Z,17.20
2019-04-14T08:24:15.745Z,17.30
2019-04-14T08:26:41.909Z,17.30
2019-04-14T08:29:08.061Z,17.30
2019-04-14T08:31:34.212Z,17.30
2019-04-14T08:34:00.369Z,17.40
2019-04-14T08:36:26.532Z,17.40
2019-04-14T08:38:52.693Z,17.40
2019-04-14T08:41:18.845Z,17.40
2019-04-14T08:43:45.006Z,17.50
2019-04-14T08:46:11.282Z,17.60
2019-04-14T08:48:37.442Z,17.50
2019-04-14T08:51:03.608Z,17.60
2019-04-14T08:53:29.751Z,17.60
2019-04-14T08:55:55.916Z,17.60
2019-04-14T08:58:22.057Z,17.60
2019-04-14T09:00:48.236Z,17.60
2019-04-14T09:03:14.380Z,17.60
2019-04-14T09:05:41.317Z,17.70
2019-04-14T09:08:07.478Z,17.70
2019-04-14T09:10:33.660Z,17.80
2019-04-14T09:12:59.812Z,17.80
2019-04-14T09:15:25.996Z,17.70
2019-04-14T09:17:52.910Z,17.80
2019-04-14T09:20:19.078Z,17.80
2019-04-14T09:22:45.243Z,17.70
2019-04-14T09:25:11.401Z,17.80
2019-04-14T09:27:37.580Z,17.80
2019-04-14T09:30:03.726Z,17.80
2019-04-14T09:32:29.896Z,17.80
2019-04-14T09:34:56.060Z,17.90
2019-04-14T09:37:22.236Z,17.90
2019-04-14T09:39:48.385Z,17.90
2019-04-14T09:42:14.570Z,17.90
2019-04-14T09:44:40.733Z,17.90
2019-04-14T09:47:06.897Z,17.90
2019-04-14T09:49:33.050Z,17.90
2019-04-14T09:51:59.215Z,18.00
2019-04-14T09:54:25.360Z,17.90
2019-04-14T09:56:51.527Z,17.90
2019-04-14T09:59:17.672Z,18.00
2019-04-14T10:01:43.897Z,17.90
2019-04-14T10:04:10.056Z,18.00
2019-04-14T10:06:36.994Z,18.10
2019-04-14T10:09:03.202Z,18.10
2019-04-14T10:11:29.389Z,18.10
2019-04-14T10:13:55.569Z,18.10
2019-04-14T10:16:21.729Z,18.00
2019-04-14T10:18:47.904Z,18.10
2019-04-14T10:21:17.708Z,18.10
2019-04-14T10:23:40.266Z,18.10
2019-04-14T10:26:06.425Z,18.20
2019-04-14T10:28:32.603Z,18.20
2019-04-14T10:30:58.756Z,18.20
2019-04-14T10:33:24.924Z,18.20
2019-04-14T10:35:51.087Z,18.20
2019-04-14T10:38:17.252Z,18.20
2019-04-14T10:40:44.164Z,18.20
2019-04-14T10:43:10.341Z,18.20
2019-04-14T10:45:36.509Z,18.30
2019-04-14T10:48:02.694Z,18.20
2019-04-14T10:50:31.136Z,18.30
2019-04-14T10:52:55.059Z,18.30
2019-04-14T10:55:21.225Z,18.30
2019-04-14T10:57:47.397Z,18.40
2019-04-14T11:00:13.550Z,18.40
2019-04-14T11:02:39.707Z,18.40
2019-04-14T11:05:05.879Z,18.30
2019-04-14T11:07:32.025Z,18.40
2019-04-14T11:09:58.201Z,18.40
2019-04-14T11:12:24.381Z,18.30
2019-04-14T11:14:50.552Z,18.40
2019-04-14T11:17:16.724Z,18.40
2019-04-14T11:19:42.894Z,18.40
2019-04-14T11:22:09.053Z,18.40
2019-04-14T11:24:35.226Z,18.50
2019-04-14T11:27:01.373Z,18.50
2019-04-14T11:29:27.536Z,18.50
2019-04-14T11:31:53.680Z,18.50
2019-04-14T11:34:19.852Z,18.40
2019-04-14T11:36:46.036Z,18.50
2019-04-14T11:39:12.208Z,18.60
2019-04-14T11:41:38.390Z,18.60
2019-04-14T11:44:04.729Z,18.60
2019-04-14T11:46:31.039Z,18.60
2019-04-14T11:48:57.273Z,18.60
2019-04-14T11:51:23.424Z,18.60
2019-04-14T11:53:49.597Z,18.60
2019-04-14T11:56:15.809Z,18.60
2019-04-14T11:58:41.991Z,18.70
2019-04-14T12:01:08.154Z,18.60
2019-04-14T12:03:34.319Z,18.60
2019-04-14T12:06:00.471Z,18.60
2019-04-14T12:08:26.621Z,18.70
2019-04-14T12:10:52.798Z,18.60
2019-04-14T12:13:19.033Z,18.70
2019-04-14T12:15:45.215Z,18.70
2019-04-14T12:18:11.381Z,18.70
2019-04-14T12:20:38.312Z,18.70
2019-04-14T12:23:04.484Z,18.70
2019-04-14T12:25:30.676Z,18.70
2019-04-14T12:27:57.903Z,18.70
2019-04-14T12:30:24.381Z,18.70
2019-04-14T12:32:49.251Z,18.70
2019-04-14T12:35:15.415Z,18.70
2019-04-14T12:37:41.561Z,18.80
2019-04-14T12:40:07.724Z,18.80
2019-04-14T12:42:33.884Z,18.80
2019-04-14T12:45:04.635Z,18.80
2019-04-14T12:47:36.602Z,18.80
2019-04-14T12:49:57.022Z,18.80
2019-04-14T12:52:23.181Z,18.80
2019-04-14T12:54:49.348Z,18.80
2019-04-14T12:57:15.843Z,18.80
2019-04-14T12:59:42.005Z,18.80
2019-04-14T13:02:10.951Z,18.80
2019-04-14T13:04:34.414Z,18.90
2019-04-14T13:07:00.582Z,18.90
2019-04-14T13:09:26.733Z,19.00
2019-04-14T13:11:52.902Z,18.90
2019-04-14T13:14:19.048Z,18.90
2019-04-14T13:16:45.209Z,18.90
2019-04-14T13:19:11.433Z,19.00
2019-04-14T13:21:40.343Z,18.90
2019-04-14T13:24:03.944Z,18.90
2019-04-14T13:26:30.122Z,18.90
2019-04-14T13:28:56.274Z,18.90
2019-04-14T13:31:22.441Z,18.90
2019-04-14T13:33:48.599Z,18.90
2019-04-14T13:36:14.767Z,18.90
2019-04-14T13:38:40.963Z,19.00
2019-04-14T13:41:07.134Z,19.00
2019-04-14T13:43:33.313Z,19.10
2019-04-14T13:45:59.971Z,19.00
2019-04-14T13:48:26.479Z,19.00
2019-04-14T13:50:52.682Z,19.00
2019-04-14T13:53:18.930Z,19.00
2019-04-14T13:55:45.095Z,19.00
2019-04-14T13:58:11.253Z,19.10
2019-04-14T14:00:37.471Z,19.20
2019-04-14T14:03:03.677Z,19.10
2019-04-14T14:05:29.821Z,19.10
2019-04-14T14:07:56.814Z,19.10
2019-04-14T14:10:22.991Z,19.10
2019-04-14T14:12:49.421Z,19.10
2019-04-14T14:15:16.435Z,19.20
2019-04-14T14:17:42.760Z,19.20
2019-04-14T14:20:09.484Z,19.20
2019-04-14T14:22:36.786Z,19.10
2019-04-14T14:25:03.883Z,18.90
2019-04-14T14:27:30.065Z,18.90
2019-04-14T14:29:56.993Z,19.00
2019-04-14T14:32:23.229Z,19.00
2019-04-14T14:34:49.550Z,19.10
2019-04-14T14:37:15.850Z,18.90
2019-04-14T14:39:42.109Z,18.90
2019-04-14T14:42:08.476Z,19.10
2019-04-14T14:44:34.983Z,19.30
2019-04-14T14:47:01.180Z,19.50
2019-04-14T14:49:27.362Z,19.60
2019-04-14T14:51:53.910Z,19.70
2019-04-14T14:54:20.081Z,19.80
2019-04-14T14:56:46.234Z,20.00
2019-04-14T14:59:12.535Z,20.00
2019-04-14T15:01:41.189Z,20.10
2019-04-14T15:04:07.369Z,20.00
2019-04-14T15:06:34.882Z,20.00
2019-04-14T15:09:01.123Z,20.20
2019-04-14T15:11:27.604Z,20.20
2019-04-14T15:13:53.903Z,20.20
2019-04-14T15:16:20.183Z,20.30
2019-04-14T15:18:46.405Z,20.10
2019-04-14T15:21:12.685Z,20.20
2019-04-14T15:23:39.116Z,20.30
2019-04-14T15:26:05.273Z,20.30
2019-04-14T15:28:31.517Z,20.30
2019-04-14T15:30:58.719Z,20.30
2019-04-14T15:33:24.916Z,20.30
2019-04-14T15:35:51.253Z,19.80
2019-04-14T15:38:17.453Z,19.80
2019-04-14T15:40:43.767Z,19.80
2019-04-14T15:43:10.757Z,19.90
2019-04-14T15:45:36.956Z,19.90
2019-04-14T15:48:03.133Z,19.60
2019-04-14T15:50:29.309Z,19.30
2019-04-14T15:52:55.472Z,19.20
2019-04-14T15:55:21.648Z,19.00
2019-04-14T15:57:47.884Z,19.10
2019-04-14T16:00:14.846Z,19.00
2019-04-14T16:02:41.151Z,19.00
2019-04-14T16:05:07.311Z,19.00
2019-04-14T16:07:33.516Z,19.20
2019-04-14T16:09:59.665Z,19.30
2019-04-14T16:12:26.766Z,19.40
2019-04-14T16:14:52.943Z,19.50
2019-04-14T16:17:19.170Z,19.60
2019-04-14T16:19:45.474Z,19.50
2019-04-14T16:22:11.651Z,19.40
2019-04-14T16:24:37.814Z,19.10
2019-04-14T16:27:03.999Z,18.70
2019-04-14T16:29:30.181Z,18.50
2019-04-14T16:31:56.367Z,18.60
2019-04-14T16:34:22.757Z,18.50
2019-04-14T16:36:48.996Z,18.50
2019-04-14T16:39:15.168Z,18.50
2019-04-14T16:41:41.321Z,18.80
2019-04-14T16:44:07.498Z,18.50
2019-04-14T16:46:33.661Z,18.70
2019-04-14T16:48:59.829Z,19.00
2019-04-14T16:51:25.988Z,19.30
2019-04-14T16:54:02.703Z,19.50
2019-04-14T16:56:18.510Z,19.60
2019-04-14T16:58:44.665Z,19.70
2019-04-14T17:01:10.889Z,19.80
2019-04-14T17:03:37.127Z,19.90
2019-04-14T17:06:03.341Z,19.90
2019-04-14T17:08:29.509Z,19.90
2019-04-14T17:10:55.680Z,20.00
2019-04-14T17:13:21.863Z,20.00
2019-04-14T17:15:48.030Z,20.10
2019-04-14T17:18:14.212Z,20.10
2019-04-14T17:20:41.369Z,20.10
2019-04-14T17:23:07.543Z,20.10
2019-04-14T17:25:33.754Z,20.20
2019-04-14T17:27:59.930Z,20.20
2019-04-14T17:30:26.113Z,20.20
2019-04-14T17:32:52.264Z,20.30
2019-04-14T17:35:18.435Z,20.10
2019-04-14T17:37:44.623Z,19.90
2019-04-14T17:40:10.797Z,19.60
2019-04-14T17:42:37.073Z,19.50
2019-04-14T17:45:03.236Z,19.40
2019-04-14T17:47:29.406Z,19.30
2019-04-14T17:49:55.572Z,19.20
2019-04-14T17:52:21.717Z,19.20
2019-04-14T17:54:47.891Z,19.10
2019-04-14T17:57:14.426Z,19.10
2019-04-14T17:59:40.573Z,19.00
2019-04-14T18:02:06.793Z,18.90
2019-04-14T18:04:32.943Z,18.90
2019-04-14T18:06:59.093Z,18.80
2019-04-14T18:09:25.264Z,18.80
2019-04-14T18:11:51.438Z,18.70
2019-04-14T18:14:17.585Z,18.70
2019-04-14T18:16:43.754Z,18.60
2019-04-14T18:19:09.913Z,18.60
2019-04-14T18:21:36.076Z,18.50
2019-04-14T18:24:02.238Z,18.50
2019-04-14T18:26:28.382Z,18.50
2019-04-14T18:28:54.553Z,18.40
2019-04-14T18:31:20.707Z,18.40
2019-04-14T18:33:46.868Z,18.40
2019-04-14T18:36:13.781Z,18.40
2019-04-14T18:38:39.942Z,18.30
2019-04-14T18:41:06.101Z,18.30
2019-04-14T18:43:32.249Z,18.30
2019-04-14T18:45:58.399Z,18.30
2019-04-14T18:48:24.562Z,18.20
2019-04-14T18:50:52.071Z,18.20
2019-04-14T18:53:16.926Z,18.20
2019-04-14T18:55:43.085Z,18.20
2019-04-14T18:58:09.253Z,18.20
2019-04-14T19:00:35.411Z,18.10
2019-04-14T19:03:01.584Z,18.10
2019-04-14T19:05:27.737Z,18.10
2019-04-14T19:07:53.913Z,18.00
2019-04-14T19:10:20.081Z,18.00
2019-04-14T19:12:46.236Z,18.00
2019-04-14T19:15:12.385Z,17.90
2019-04-14T19:17:38.555Z,17.90
2019-04-14T19:20:05.471Z,17.80
2019-04-14T19:22:31.621Z,17.80
2019-04-14T19:25:07.839Z,17.90
2019-04-14T19:27:23.973Z,17.80
2019-04-14T19:29:50.121Z,17.80
2019-04-14T19:32:16.280Z,17.80
2019-04-14T19:34:42.431Z,17.80
2019-04-14T19:37:08.589Z,17.80
2019-04-14T19:39:34.816Z,17.70
2019-04-14T19:42:00.925Z,17.70
2019-04-14T19:44:27.068Z,17.70
2019-04-14T19:46:53.227Z,17.70
2019-04-14T19:49:19.394Z,17.70
2019-04-14T19:51:45.544Z,17.70
2019-04-14T19:54:11.707Z,17.60
2019-04-14T19:56:37.917Z,17.60
2019-04-14T19:59:04.092Z,17.60
2019-04-14T20:01:30.243Z,17.60
2019-04-14T20:03:56.399Z,17.60
2019-04-14T20:06:22.541Z,17.50
2019-04-14T20:08:48.697Z,17.50
2019-04-14T20:11:14.848Z,17.40
2019-04-14T20:13:40.992Z,17.40
2019-04-14T20:16:07.145Z,17.50
2019-04-14T20:18:33.284Z,17.40
2019-04-14T20:20:59.434Z,17.40
2019-04-14T20:23:25.689Z,17.40
2019-04-14T20:25:51.816Z,17.40
2019-04-14T20:28:17.964Z,17.40
2019-04-14T20:30:44.124Z,17.40
2019-04-14T20:33:10.276Z,17.40
2019-04-14T20:35:36.444Z,17.40
2019-04-14T20:38:02.584Z,17.30
2019-04-14T20:40:28.752Z,17.30
2019-04-14T20:42:54.902Z,17.40
2019-04-14T20:45:21.076Z,17.40
2019-04-14T20:47:47.984Z,17.30
2019-04-14T20:50:14.162Z,17.30
2019-04-14T20:52:40.319Z,17.30
2019-04-14T20:55:06.501Z,17.30
2019-04-14T20:57:32.656Z,17.30
2019-04-14T20:59:58.819Z,17.30
2019-04-14T21:02:24.969Z,17.20
2019-04-14T21:04:51.125Z,17.20
2019-04-14T21:07:17.275Z,17.20
2019-04-14T21:09:43.432Z,17.20
2019-04-14T21:12:09.597Z,17.20
2019-04-14T21:14:35.746Z,17.20
2019-04-14T21:17:01.938Z,17.20
2019-04-14T21:19:28.095Z,17.10
2019-04-14T21:21:54.260Z,17.10
2019-04-14T21:24:20.406Z,17.10
2019-04-14T21:26:46.754Z,17.10
2019-04-14T21:29:12.901Z,17.10
2019-04-14T21:31:39.058Z,17.10
2019-04-14T21:34:05.219Z,17.10
2019-04-14T21:36:31.372Z,17.10
2019-04-14T21:38:57.541Z,17.10
2019-04-14T21:41:23.698Z,17.10
2019-04-14T21:43:49.849Z,17.10
2019-04-14T21:46:15.997Z,17.10
2019-04-14T21:48:42.160Z,17.00
2019-04-14T21:51:09.064Z,17.00
2019-04-14T21:53:35.217Z,17.00
2019-04-14T21:56:12.744Z,17.00
2019-04-14T21:58:28.340Z,17.00
2019-04-14T22:00:54.486Z,17.00
2019-04-14T22:03:20.655Z,17.00
2019-04-14T22:05:46.798Z,17.00
2019-04-14T22:08:13.059Z,17.00
2019-04-14T22:10:39.221Z,17.00
2019-04-14T22:13:05.401Z,17.00
2019-04-14T22:15:31.546Z,17.00
2019-04-14T22:17:57.695Z,17.00
2019-04-14T22:20:23.841Z,17.00
2019-04-14T22:22:49.998Z,17.00
2019-04-14T22:25:16.192Z,17.00
2019-04-14T22:27:42.350Z,17.00
2019-04-14T22:30:08.503Z,16.90
2019-04-14T22:32:34.653Z,16.90
2019-04-14T22:35:01.567Z,16.90
2019-04-14T22:37:27.733Z,16.90
2019-04-14T22:39:53.904Z,16.90
2019-04-14T22:42:20.063Z,16.90
2019-04-14T22:44:46.225Z,16.90
2019-04-14T22:47:12.386Z,16.90
2019-04-14T22:49:38.550Z,16.90
2019-04-14T22:52:04.708Z,16.90
2019-04-14T22:54:30.865Z,16.90
2019-04-14T22:56:57.016Z,16.80
2019-04-14T22:59:23.191Z,16.80
2019-04-14T23:01:49.342Z,16.90
2019-04-14T23:04:15.794Z,16.80
2019-04-14T23:06:41.952Z,16.80
2019-04-14T23:09:08.103Z,16.80
2019-04-14T23:11:34.264Z,16.80
2019-04-14T23:14:00.410Z,16.80
2019-04-14T23:16:26.572Z,16.80
2019-04-14T23:18:52.721Z,16.80
2019-04-14T23:21:18.897Z,16.90
2019-04-14T23:23:45.041Z,16.80
2019-04-14T23:26:11.280Z,16.80
2019-04-14T23:28:37.427Z,16.80
2019-04-14T23:31:03.591Z,16.70
2019-04-14T23:33:29.746Z,16.70
2019-04-14T23:35:55.917Z,16.80
2019-04-14T23:38:22.067Z,16.70
2019-04-14T23:40:48.233Z,16.70
2019-04-14T23:43:14.383Z,16.70
2019-04-14T23:45:40.561Z,16.70
2019-04-14T23:48:06.707Z,16.70
2019-04-14T23:50:32.869Z,16.70
2019-04-14T23:52:59.018Z,16.60
2019-04-14T23:55:25.213Z,16.60
2019-04-14T23:57:51.368Z,16.70
